Time;durP1;ratioP1;P1;durP2;ratioP2;P2;SDS_P1;SDS_P2;PMS_P1;PMS_P2;Temp;Humidity;BMP_temperature;BMP_pressure;BME280_temperature;BME280_humidity;BME280_pressure;Samples;Min_cycle;Max_cycle;Signal;HPM_P1;HPM_P2
2021/03/26 00:01:42;;;;;;;;;;;;;;;4.18;100.00;101278.88;5052683;28;19932;-66
2021/03/26 00:04:10;;;;;;;;;;;;;;;4.06;100.00;101290.16;5053695;28;19941;-66
2021/03/26 00:06:38;;;;;;;;;;;;;;;3.93;100.00;101283.56;5054127;28;19958;-66
2021/03/26 00:09:05;;;;;;;;;;;;;;;3.83;100.00;101288.50;5053747;28;20441;-67
2021/03/26 00:11:31;;;;;;;;;;;;;;;3.72;100.00;101286.28;5054093;28;19931;-66
2021/03/26 00:13:57;;;;;;;;;;;;;;;3.66;100.00;101286.53;5053856;28;19924;-67
2021/03/26 00:16:23;;;;;;;;;;;;;;;3.64;100.00;101280.38;5053913;28;19924;-66
2021/03/26 00:18:50;;;;;;;;;;;;;;;3.58;100.00;101283.31;5053869;28;19924;-67
2021/03/26 00:21:20;;;;;;;;;;;;;;;3.52;100.00;101288.00;5053453;28;19929;-67
2021/03/26 00:23:46;;;;;;;;;;;;;;;3.44;100.00;101279.41;5053830;28;20015;-67
2021/03/26 00:26:12;;;;;;;;;;;;;;;3.38;100.00;101279.69;5053722;28;19932;-67
2021/03/26 00:28:38;;;;;;;;;;;;;;;3.32;100.00;101277.25;5053760;28;19925;-67
2021/03/26 00:31:04;;;;;;;;;;;;;;;3.30;100.00;101274.66;5053418;28;19925;-67
2021/03/26 00:33:30;;;;;;;;;;;;;;;3.30;100.00;101277.34;5053529;28;19955;-67
2021/03/26 00:35:56;;;;;;;;;;;;;;;3.26;100.00;101280.19;5053537;28;20394;-67
2021/03/26 00:38:23;;;;;;;;;;;;;;;3.21;100.00;101279.50;5052884;28;19924;-67
2021/03/26 00:40:49;;;;;;;;;;;;;;;3.17;100.00;101276.97;5053496;28;20302;-67
2021/03/26 00:43:15;;;;;;;;;;;;;;;3.14;100.00;101269.03;5035432;28;19931;-66
2021/03/26 00:45:42;;;;;;;;;;;;;;;3.10;100.00;101271.91;5053595;28;20216;-66
2021/03/26 00:48:09;;;;;;;;;;;;;;;3.04;100.00;101270.34;5053137;28;20015;-67
2021/03/26 00:50:37;;;;;;;;;;;;;;;2.99;100.00;101275.91;5053307;28;19929;-66
2021/03/26 00:53:06;;;;;;;;;;;;;;;2.95;100.00;101276.09;5053177;28;20390;-66
2021/03/26 00:55:33;;;;;;;;;;;;;;;2.92;100.00;101271.72;5035417;28;20019;-66
2021/03/26 00:57:59;;;;;;;;;;;;;;;2.94;100.00;101277.03;5052633;28;19978;-66
2021/03/26 01:00:28;;;;;;;;;;;;;;;2.87;100.00;101280.91;5035119;28;19978;-66
2021/03/26 01:02:54;;;;;;;;;;;;;;;2.78;100.00;101277.66;5035006;28;19971;-66
2021/03/26 01:05:22;;;;;;;;;;;;;;;2.71;100.00;101281.50;5052792;28;20340;-66
2021/03/26 01:07:48;;;;;;;;;;;;;;;2.67;100.00;101282.56;5053107;28;19977;-66
2021/03/26 01:10:15;;;;;;;;;;;;;;;2.65;100.00;101276.41;5052575;28;19943;-66
2021/03/26 01:12:43;;;;;;;;;;;;;;;2.67;100.00;101270.03;5051889;28;20078;-67
2021/03/26 01:15:11;;;;;;;;;;;;;;;2.65;100.00;101279.94;5052375;28;19925;-67
2021/03/26 01:17:38;;;;;;;;;;;;;;;2.64;100.00;101272.81;5054997;28;20382;-66
2021/03/26 01:20:06;;;;;;;;;;;;;;;2.67;100.00;101271.81;5054506;28;19924;-67
2021/03/26 01:22:32;;;;;;;;;;;;;;;2.66;100.00;101276.34;5055011;28;20389;-66
2021/03/26 01:25:04;;;;;;;;;;;;;;;2.67;100.00;101263.78;5054868;28;20011;-67
2021/03/26 01:27:34;;;;;;;;;;;;;;;2.70;100.00;101274.41;5054783;28;19932;-66
2021/03/26 01:30:06;;;;;;;;;;;;;;;2.67;100.00;101271.81;5072218;28;19928;-66
2021/03/26 01:32:33;;;;;;;;;;;;;;;2.64;100.00;101267.47;5072494;28;19947;-66
2021/03/26 01:34:58;;;;;;;;;;;;;;;2.65;100.00;101266.53;5054276;28;20457;-66
2021/03/26 01:37:24;;;;;;;;;;;;;;;2.65;100.00;101266.53;5072476;28;19968;-66
2021/03/26 01:39:51;;;;;;;;;;;;;;;2.61;100.00;101264.06;5054135;28;20366;-67
2021/03/26 01:42:20;;;;;;;;;;;;;;;2.59;100.00;101271.25;5054442;28;19936;-67
2021/03/26 01:44:46;;;;;;;;;;;;;;;2.61;100.00;101266.72;5072175;28;19924;-66
2021/03/26 01:47:19;;;;;;;;;;;;;;;2.60;100.00;101267.66;5054565;28;19925;-66
2021/03/26 01:49:45;;;;;;;;;;;;;;;2.59;100.00;101257.84;5054238;28;19925;-67
2021/03/26 01:52:11;;;;;;;;;;;;;;;2.59;100.00;101255.19;5071923;28;20016;-67
2021/03/26 01:54:38;;;;;;;;;;;;;;;2.59;100.00;101258.75;5071661;28;20375;-66
2021/03/26 01:57:10;;;;;;;;;;;;;;;2.59;100.00;101257.84;5072172;28;20342;-66
2021/03/26 01:59:40;;;;;;;;;;;;;;;2.62;100.00;101255.03;5054127;28;20412;-67
2021/03/26 02:02:10;;;;;;;;;;;;;;;2.65;100.00;101254.94;5071924;28;20301;-67
2021/03/26 02:05:01;;;;;;;;;;;;;;;2.69;100.00;101259.25;5071527;28;20485;-66
2021/03/26 02:07:56;;;;;;;;;;;;;;;2.72;100.00;101255.56;5058104;28;20023;-67
2021/03/26 02:10:26;;;;;;;;;;;;;;;2.73;100.00;101260.00;5053559;28;19924;-67
2021/03/26 02:13:00;;;;;;;;;;;;;;;2.73;100.00;101254.66;5071674;28;20267;-67
2021/03/26 02:15:27;;;;;;;;;;;;;;;2.77;100.00;101249.09;5053943;28;19924;-66
2021/03/26 02:17:53;;;;;;;;;;;;;;;2.81;100.00;101248.03;5053885;28;20333;-66
2021/03/26 02:20:36;;;;;;;;;;;;;;;2.88;100.00;101245.09;5053606;28;19947;-66
2021/03/26 02:23:08;;;;;;;;;;;;;;;2.94;100.00;101245.72;5053658;28;19932;-66
2021/03/26 02:25:39;;;;;;;;;;;;;;;2.97;100.00;101242.91;5053334;28;20427;-66
2021/03/26 02:28:05;;;;;;;;;;;;;;;2.99;100.00;101253.56;5071272;28;19925;-66
2021/03/26 02:30:33;;;;;;;;;;;;;;;2.99;100.00;101253.56;5052215;28;19960;-67
2021/03/26 02:33:02;;;;;;;;;;;;;;;2.96;100.00;101253.72;5033618;28;20020;-67
2021/03/26 02:35:30;;;;;;;;;;;;;;;2.97;100.00;101256.31;5033603;28;19932;-67
2021/03/26 02:38:16;;;;;;;;;;;;;;;3.00;100.00;101252.63;5033233;28;20031;-67
2021/03/26 02:40:45;;;;;;;;;;;;;;;3.00;100.00;101250.81;5033500;28;19971;-66
2021/03/26 02:43:19;;;;;;;;;;;;;;;2.97;100.00;101259.00;5033368;28;19925;-67
2021/03/26 02:45:47;;;;;;;;;;;;;;;2.95;100.00;101252.84;5033186;28;19924;-67
2021/03/26 02:48:15;;;;;;;;;;;;;;;2.91;100.00;101256.56;5033213;28;20014;-67
2021/03/26 02:50:53;;;;;;;;;;;;;;;2.85;100.00;101257.69;5033419;28;19925;-67
2021/03/26 02:53:42;;;;;;;;;;;;;;;2.70;100.00;101258.31;5033565;28;20032;-66
2021/03/26 02:56:11;;;;;;;;;;;;;;;2.57;100.00;101262.44;5033362;28;19931;-66
2021/03/26 02:58:43;;;;;;;;;;;;;;;2.45;100.00;101261.94;5033409;28;20299;-67
2021/03/26 03:01:14;;;;;;;;;;;;;;;2.38;100.00;101263.13;5033284;28;20050;-66
2021/03/26 03:03:41;;;;;;;;;;;;;;;2.34;100.00;101262.38;5032990;28;20067;-66
2021/03/26 03:06:10;;;;;;;;;;;;;;;2.30;100.00;101255.38;5050863;28;20290;-66
2021/03/26 03:09:04;;;;;;;;;;;;;;;2.25;100.00;101262.72;5050341;28;19956;-67
2021/03/26 03:11:34;;;;;;;;;;;;;;;2.21;100.00;101261.09;5033219;28;19936;-66
2021/03/26 03:14:09;;;;;;;;;;;;;;;2.19;100.00;101262.94;5033184;28;19960;-66
2021/03/26 03:16:39;;;;;;;;;;;;;;;2.17;100.00;101265.69;5033248;28;19939;-67
2021/03/26 03:19:10;;;;;;;;;;;;;;;2.13;100.00;101258.69;5049897;28;21826;-67
2021/03/26 03:21:40;;;;;;;;;;;;;;;2.11;100.00;101260.56;5032941;28;19925;-67
2021/03/26 03:24:09;;;;;;;;;;;;;;;2.11;100.00;101260.56;5056735;28;19925;-66
2021/03/26 03:26:48;;;;;;;;;;;;;;;2.09;100.00;101267.78;5052992;28;19929;-66
2021/03/26 03:29:16;;;;;;;;;;;;;;;2.12;100.00;101261.44;5070531;28;19968;-66
2021/03/26 03:32:06;;;;;;;;;;;;;;;2.20;100.00;101263.84;5070537;28;19989;-66
2021/03/26 03:34:36;;;;;;;;;;;;;;;2.26;100.00;101272.50;5053024;28;19924;-66
2021/03/26 03:37:07;;;;;;;;;;;;;;;2.34;100.00;101267.72;5055345;28;19931;-66
2021/03/26 03:39:40;;;;;;;;;;;;;;;2.41;100.00;101259.47;5056383;28;19978;-66
2021/03/26 03:42:12;;;;;;;;;;;;;;;2.50;100.00;101267.16;5074460;28;19931;-66
2021/03/26 03:44:41;;;;;;;;;;;;;;;2.58;100.00;101264.16;5056589;28;20302;-67
2021/03/26 03:47:10;;;;;;;;;;;;;;;2.65;100.00;101255.81;5056302;28;19924;-66
2021/03/26 03:49:48;;;;;;;;;;;;;;;2.76;100.00;101258.06;5056493;28;19924;-66
2021/03/26 03:52:18;;;;;;;;;;;;;;;2.87;100.00;101246.91;5074303;28;20435;-66
2021/03/26 03:54:47;;;;;;;;;;;;;;;2.93;100.00;101251.16;5056602;28;19928;-66
2021/03/26 03:57:17;;;;;;;;;;;;;;;3.01;100.00;101246.34;5056194;28;19970;-66
2021/03/26 03:59:49;;;;;;;;;;;;;;;3.05;100.00;101242.59;5056020;28;19986;-67
2021/03/26 04:02:20;;;;;;;;;;;;;;;3.13;100.00;101253.03;5056235;28;19924;-67
2021/03/26 04:04:49;;;;;;;;;;;;;;;3.17;100.00;101250.13;5056232;28;20484;-66
2021/03/26 04:07:17;;;;;;;;;;;;;;;3.27;100.00;101249.75;5074038;28;19970;-66
2021/03/26 04:09:47;;;;;;;;;;;;;;;3.35;100.00;101244.91;5055902;28;19928;-66
2021/03/26 04:12:15;;;;;;;;;;;;;;;3.41;100.00;101244.66;5073919;28;19933;-66
2021/03/26 04:14:46;;;;;;;;;;;;;;;3.41;100.00;101244.66;5056350;28;19929;-66
2021/03/26 04:17:16;;;;;;;;;;;;;;;3.39;100.00;101246.53;5055647;28;20443;-66
2021/03/26 04:19:44;;;;;;;;;;;;;;;3.43;100.00;101248.13;5056149;28;20019;-66
2021/03/26 04:22:13;;;;;;;;;;;;;;;3.47;100.00;101248.88;5055755;28;19928;-65
2021/03/26 04:24:58;;;;;;;;;;;;;;;3.53;100.00;101254.00;5055786;28;19924;-66
2021/03/26 04:27:27;;;;;;;;;;;;;;;3.58;100.00;101254.69;5073762;28;19929;-66
2021/03/26 04:29:54;;;;;;;;;;;;;;;3.60;100.00;101247.41;5073341;28;19928;-66
2021/03/26 04:32:25;;;;;;;;;;;;;;;3.59;100.00;101251.03;5038453;28;20373;-66
2021/03/26 04:34:53;;;;;;;;;;;;;;;3.62;100.00;101252.72;5053472;28;20247;-66
2021/03/26 04:37:22;;;;;;;;;;;;;;;3.66;100.00;101251.63;5035546;28;19925;-66
2021/03/26 04:39:54;;;;;;;;;;;;;;;3.68;100.00;101247.94;5035446;28;19929;-66
2021/03/26 04:42:27;;;;;;;;;;;;;;;3.75;100.00;101253.91;5035519;28;19947;-66
2021/03/26 04:44:58;;;;;;;;;;;;;;;3.80;100.00;101251.03;5035494;28;19925;-66
2021/03/26 04:47:42;;;;;;;;;;;;;;;3.85;100.00;101254.41;5035241;28;20370;-66
2021/03/26 04:50:27;;;;;;;;;;;;;;;3.85;100.00;101251.72;5035274;28;19932;-66
2021/03/26 04:52:56;;;;;;;;;;;;;;;3.91;100.00;101255.94;5035248;28;19932;-66
2021/03/26 04:55:25;;;;;;;;;;;;;;;3.91;100.00;101255.94;5053158;28;19936;-66
2021/03/26 04:57:59;;;;;;;;;;;;;;;3.93;100.00;101259.41;5052901;28;20387;-66
2021/03/26 05:00:34;;;;;;;;;;;;;;;3.90;100.00;101256.88;5035237;28;20405;-66
2021/03/26 05:03:04;;;;;;;;;;;;;;;3.93;100.00;101257.63;5035590;28;19925;-66
2021/03/26 05:05:34;;;;;;;;;;;;;;;3.97;100.00;101258.34;5042320;28;19931;-66
2021/03/26 05:08:11;;;;;;;;;;;;;;;4.02;100.00;101242.88;5054821;28;19931;-66
2021/03/26 05:10:58;;;;;;;;;;;;;;;4.09;100.00;101251.53;5057850;28;19932;-66
2021/03/26 05:13:29;;;;;;;;;;;;;;;4.14;100.00;101252.19;5038686;28;19935;-65
2021/03/26 05:16:00;;;;;;;;;;;;;;;4.17;100.00;101258.31;5052742;28;19966;-66
2021/03/26 05:18:41;;;;;;;;;;;;;;;4.23;100.00;101256.28;5033304;28;19954;-66
2021/03/26 05:21:11;;;;;;;;;;;;;;;4.29;100.00;101253.28;5035387;28;19975;-66
2021/03/26 05:23:46;;;;;;;;;;;;;;;4.36;100.00;101254.75;5072808;28;19951;-66
2021/03/26 05:26:47;;;;;;;;;;;;;;;4.46;100.00;101255.19;5066799;28;20296;-68
2021/03/26 05:29:37;;;;;;;;;;;;;;;4.52;100.00;101250.41;5071468;28;19924;-66
2021/03/26 05:32:10;;;;;;;;;;;;;;;4.61;100.00;101258.97;5071642;28;19924;-67
2021/03/26 05:35:09;;;;;;;;;;;;;;;4.71;100.00;101254.03;5071508;28;19924;-66
2021/03/26 05:37:54;;;;;;;;;;;;;;;4.77;100.00;101254.63;5041442;28;20062;-66
2021/03/26 05:41:09;;;;;;;;;;;;;;;4.84;100.00;101260.56;5057129;28;19924;-66
2021/03/26 05:44:05;;;;;;;;;;;;;;;4.86;100.00;101261.34;5072199;28;19931;-66
2021/03/26 05:46:43;;;;;;;;;;;;;;;4.92;100.00;101262.84;5060754;28;19931;-66
2021/03/26 05:50:02;;;;;;;;;;;;;;;4.96;100.00;101268.03;5045771;28;19949;-66
2021/03/26 05:52:38;;;;;;;;;;;;;;;5.06;100.00;101271.13;5034419;28;19975;-66
2021/03/26 05:55:20;;;;;;;;;;;;;;;5.13;100.00;101266.31;5053202;28;20011;-66
2021/03/26 05:57:54;;;;;;;;;;;;;;;5.17;100.00;101274.19;5058275;28;19932;-66
2021/03/26 06:00:34;;;;;;;;;;;;;;;5.23;100.00;101275.69;5050535;28;19988;-66
2021/03/26 06:03:46;;;;;;;;;;;;;;;5.26;100.00;101286.28;4997255;28;20078;-65
2021/03/26 06:06:54;;;;;;;;;;;;;;;5.32;100.00;101285.13;5078549;28;20461;-65
2021/03/26 06:09:56;;;;;;;;;;;;;;;5.40;100.00;101291.00;5086254;28;19931;-65
2021/03/26 06:12:55;;;;;;;;;;;;;;;5.49;100.00;101287.84;5041425;28;19931;-65
2021/03/26 06:15:43;;;;;;;;;;;;;;;5.60;100.00;101291.78;5071823;28;19963;-65
2021/03/26 06:18:31;;;;;;;;;;;;;;;5.67;100.00;101294.09;5071328;28;19981;-65
2021/03/26 06:21:23;;;;;;;;;;;;;;;5.74;100.00;101296.47;5065343;28;19934;-66
2021/03/26 06:24:30;;;;;;;;;;;;;;;5.82;100.00;101297.81;5070781;28;20459;-66
2021/03/26 06:27:10;;;;;;;;;;;;;;;5.88;100.00;101302.03;5052333;28;19931;-65
2021/03/26 06:29:42;;;;;;;;;;;;;;;5.87;100.00;101295.75;5037350;28;20017;-65
2021/03/26 06:32:27;;;;;;;;;;;;;;;5.90;100.00;101297.41;5033142;28;19933;-65
2021/03/26 06:35:23;;;;;;;;;;;;;;;5.92;100.00;101300.91;5032407;28;19925;-65
2021/03/26 06:38:01;;;;;;;;;;;;;;;5.96;100.00;101299.78;5052208;28;19928;-65
2021/03/26 06:40:37;;;;;;;;;;;;;;;5.98;100.00;101310.50;5057766;28;20396;-66
2021/03/26 06:43:10;;;;;;;;;;;;;;;6.01;100.00;101299.56;5071147;28;19932;-65
2021/03/26 06:45:49;;;;;;;;;;;;;;;6.10;100.00;101301.78;5063153;28;20259;-66
2021/03/26 06:48:24;;;;;;;;;;;;;;;6.15;100.00;101301.53;5036722;28;19944;-66
2021/03/26 06:51:16;;;;;;;;;;;;;;;6.14;100.00;101302.50;5069061;28;19940;-66
2021/03/26 06:53:47;;;;;;;;;;;;;;;6.16;100.00;101296.06;5051684;28;19924;-66
2021/03/26 06:56:31;;;;;;;;;;;;;;;6.24;100.00;101289.38;5033039;28;19925;-66
2021/03/26 06:59:08;;;;;;;;;;;;;;;6.31;100.00;101299.75;5050797;28;19954;-66
2021/03/26 07:01:48;;;;;;;;;;;;;;;6.31;100.00;101302.44;5051556;28;19924;-66
2021/03/26 07:04:20;;;;;;;;;;;;;;;6.39;100.00;101306.53;5060121;28;20374;-66
2021/03/26 07:06:56;;;;;;;;;;;;;;;6.50;100.00;101296.91;5071066;28;20036;-66
2021/03/26 07:09:36;;;;;;;;;;;;;;;6.65;100.00;101302.41;5069772;28;19958;-66
2021/03/26 07:12:09;;;;;;;;;;;;;;;6.74;100.00;101291.13;5075043;28;19924;-66
2021/03/26 07:14:56;;;;;;;;;;;;;;;6.81;100.00;101295.19;5050940;28;19956;-66
2021/03/26 07:17:33;;;;;;;;;;;;;;;6.93;100.00;101285.53;5054891;28;19925;-66
2021/03/26 07:20:08;;;;;;;;;;;;;;;7.05;100.00;101297.47;5063208;28;20122;-66
2021/03/26 07:22:49;;;;;;;;;;;;;;;7.20;100.00;101293.00;5073141;28;19924;-66
2021/03/26 07:25:29;;;;;;;;;;;;;;;7.41;100.00;101288.19;5046361;28;19935;-66
2021/03/26 07:28:06;;;;;;;;;;;;;;;7.62;100.00;101285.19;5054861;28;19928;-65
2021/03/26 07:30:36;;;;;;;;;;;;;;;7.83;100.00;101289.28;5067599;28;20027;-65
2021/03/26 07:33:06;;;;;;;;;;;;;;;8.10;100.00;101288.56;5083832;28;19924;-66
2021/03/26 07:35:53;;;;;;;;;;;;;;;8.71;100.00;101281.13;5075566;28;19929;-66
2021/03/26 07:38:35;;;;;;;;;;;;;;;9.55;100.00;101271.09;5045993;28;19929;-66
2021/03/26 07:41:09;;;;;;;;;;;;;;;10.44;100.00;101273.13;5056463;28;20381;-66
2021/03/26 07:43:54;;;;;;;;;;;;;;;10.96;100.00;101276.59;5059735;28;20029;-66
2021/03/26 07:46:36;;;;;;;;;;;;;;;11.79;100.00;101273.00;5028048;28;19955;-66
2021/03/26 07:49:09;;;;;;;;;;;;;;;12.44;100.00;101269.78;5036482;28;19925;-65
2021/03/26 07:51:38;;;;;;;;;;;;;;;13.15;100.00;101267.59;5056070;28;19925;-65
2021/03/26 07:54:34;;;;;;;;;;;;;;;13.83;100.00;101272.78;5054454;28;19925;-65
2021/03/26 07:57:19;;;;;;;;;;;;;;;14.21;100.00;101274.03;5030236;28;19925;-65
2021/03/26 08:00:00;;;;;;;;;;;;;;;14.25;100.00;101273.78;5036561;28;20370;-65
2021/03/26 08:02:34;;;;;;;;;;;;;;;14.40;100.00;101283.31;5052527;28;19928;-65
2021/03/26 08:05:02;;;;;;;;;;;;;;;14.47;100.00;101283.63;5054567;28;19924;-65
2021/03/26 08:07:52;;;;;;;;;;;;;;;14.81;100.00;101277.94;5053730;28;19932;-65
2021/03/26 08:10:31;;;;;;;;;;;;;;;15.12;100.00;101280.59;5053310;28;19929;-65
2021/03/26 08:13:13;;;;;;;;;;;;;;;14.74;100.00;101277.63;5054197;28;19925;-65
2021/03/26 08:15:49;;;;;;;;;;;;;;;14.05;100.00;101279.09;5053782;28;19931;-66
2021/03/26 08:18:28;;;;;;;;;;;;;;;13.63;100.00;101276.34;5053834;28;19936;-65
2021/03/26 08:20:59;;;;;;;;;;;;;;;13.77;100.00;101283.38;5054033;28;19932;-65
2021/03/26 08:23:50;;;;;;;;;;;;;;;14.27;100.00;101285.41;5053414;28;20354;-65
2021/03/26 08:26:21;;;;;;;;;;;;;;;14.51;100.00;101277.78;5053664;28;19925;-66
2021/03/26 08:28:54;;;;;;;;;;;;;;;14.33;100.00;101282.16;5066430;28;19963;-66
2021/03/26 08:31:41;;;;;;;;;;;;;;;13.97;100.00;101287.97;5068062;28;19932;-66
2021/03/26 08:34:14;;;;;;;;;;;;;;;13.91;100.00;101283.06;5053088;28;19925;-66
2021/03/26 08:36:43;;;;;;;;;;;;;;;14.00;100.00;101282.25;5052548;28;19933;-67
2021/03/26 08:39:16;;;;;;;;;;;;;;;14.17;100.00;101286.22;5053417;28;19932;-66
2021/03/26 08:41:44;;;;;;;;;;;;;;;14.57;100.00;101281.81;5053210;28;20291;-66
2021/03/26 08:44:15;;;;;;;;;;;;;;;15.22;100.00;101282.31;5035600;28;20349;-66
2021/03/26 08:46:44;;;;;;;;;;;;;;;15.57;100.00;101275.44;5053469;28;20378;-66
2021/03/26 08:49:19;;;;;;;;;;;;;;;15.81;100.00;101274.16;5053219;28;19928;-66
2021/03/26 08:52:08;;;;;;;;;;;;;;;15.67;100.00;101272.72;5054190;28;19925;-67
2021/03/26 08:54:41;;;;;;;;;;;;;;;15.50;100.00;101270.69;5053166;28;19924;-67
2021/03/26 08:57:13;;;;;;;;;;;;;;;15.26;100.00;101266.50;5060342;28;20389;-67
2021/03/26 09:00:09;;;;;;;;;;;;;;;15.14;100.00;101275.81;5073097;28;19931;-67
2021/03/26 09:02:58;;;;;;;;;;;;;;;14.83;100.00;101279.53;5009682;28;19933;-67
2021/03/26 09:05:38;;;;;;;;;;;;;;;14.79;100.00;101277.19;5034534;28;20392;-67
2021/03/26 09:08:13;;;;;;;;;;;;;;;15.06;100.00;101273.81;5072803;28;19964;-66
2021/03/26 09:10:54;;;;;;;;;;;;;;;15.29;100.00;101279.03;5071318;28;20347;-67
2021/03/26 09:13:25;;;;;;;;;;;;;;;15.29;100.00;101279.03;5069962;28;19924;-66
2021/03/26 09:15:56;;;;;;;;;;;;;;;15.02;100.00;101278.69;5053961;28;19928;-67
2021/03/26 09:18:46;;;;;;;;;;;;;;;15.06;100.00;101277.41;5052856;28;19951;-67
2021/03/26 09:21:19;;;;;;;;;;;;;;;15.09;100.00;101280.88;5061116;28;19928;-66
2021/03/26 09:24:02;;;;;;;;;;;;;;;14.79;100.00;101274.44;5071552;28;19955;-67
2021/03/26 09:26:34;;;;;;;;;;;;;;;14.80;100.00;101271.56;5058860;28;20404;-67
2021/03/26 09:29:03;;;;;;;;;;;;;;;14.86;100.00;101268.28;5071341;28;19929;-67
2021/03/26 09:31:32;;;;;;;;;;;;;;;15.12;100.00;101261.44;5066894;28;19933;-67
2021/03/26 09:34:00;;;;;;;;;;;;;;;15.12;100.00;101261.44;5064452;28;20001;-68
2021/03/26 09:36:39;;;;;;;;;;;;;;;14.92;100.00;101261.41;5067479;28;20310;-67
2021/03/26 09:39:07;;;;;;;;;;;;;;;14.71;100.00;101262.34;5058911;28;19971;-67
2021/03/26 09:41:45;;;;;;;;;;;;;;;14.57;100.00;101263.56;5043349;28;20096;-67
2021/03/26 09:44:21;;;;;;;;;;;;;;;14.63;100.00;101264.00;5037784;28;20306;-67
2021/03/26 09:46:50;;;;;;;;;;;;;;;14.71;100.00;101258.75;5056996;28;20404;-67
2021/03/26 09:49:18;;;;;;;;;;;;;;;14.86;100.00;101265.56;5049205;28;19932;-67
2021/03/26 09:51:46;;;;;;;;;;;;;;;15.00;100.00;101257.97;5053149;28;19939;-67
2021/03/26 09:54:14;;;;;;;;;;;;;;;15.40;100.00;101259.75;5065481;28;20349;-67
2021/03/26 09:56:43;;;;;;;;;;;;;;;15.50;100.00;101255.16;5057597;28;20374;-67
2021/03/26 09:59:14;;;;;;;;;;;;;;;16.31;99.89;101259.34;5056565;28;19970;-67
2021/03/26 10:01:42;;;;;;;;;;;;;;;16.88;92.77;101251.00;5055381;28;19968;-66
2021/03/26 10:04:11;;;;;;;;;;;;;;;17.84;88.03;101251.47;5063520;28;19924;-67
2021/03/26 10:06:39;;;;;;;;;;;;;;;18.30;74.92;101251.28;5071355;28;19924;-66
2021/03/26 10:09:11;;;;;;;;;;;;;;;18.62;72.49;101245.09;5049635;28;19932;-66
2021/03/26 10:11:52;;;;;;;;;;;;;;;19.18;72.25;101234.47;5051322;28;19925;-66
2021/03/26 10:14:21;;;;;;;;;;;;;;;19.87;75.10;101242.47;5061420;28;19925;-69
2021/03/26 10:16:51;;;;;;;;;;;;;;;19.98;70.46;101245.91;5070341;28;19967;-67
2021/03/26 10:19:26;;;;;;;;;;;;;;;19.94;65.48;101244.53;5044019;28;19931;-67
2021/03/26 10:21:56;;;;;;;;;;;;;;;20.18;66.37;101238.97;5060913;28;19928;-68
2021/03/26 10:24:24;;;;;;;;;;;;;;;19.83;64.25;101231.94;5065685;28;20328;-67
2021/03/26 10:26:51;;;;;;;;;;;;;;;19.64;64.86;101234.00;5053319;28;19925;-67
2021/03/26 10:29:20;;;;;;;;;;;;;;;20.01;68.25;101232.63;5067804;28;20511;-67
2021/03/26 10:31:47;;;;;;;;;;;;;;;19.92;59.36;101230.91;5061696;28;20000;-67
2021/03/26 10:34:16;;;;;;;;;;;;;;;20.85;57.75;101229.44;5064301;28;19932;-67
2021/03/26 10:36:49;;;;;;;;;;;;;;;20.91;57.93;101225.09;5067204;28;19932;-66
2021/03/26 10:39:17;;;;;;;;;;;;;;;20.60;56.17;101225.06;5067671;28;19931;-66
2021/03/26 10:41:51;;;;;;;;;;;;;;;20.60;55.95;101217.63;5065689;28;19955;-66
2021/03/26 10:44:22;;;;;;;;;;;;;;;20.02;60.08;101214.22;5050217;28;19925;-66
2021/03/26 10:46:50;;;;;;;;;;;;;;;18.88;57.98;101212.06;5051216;28;19978;-66
2021/03/26 10:49:19;;;;;;;;;;;;;;;18.54;62.22;101209.31;5064296;28;19936;-66
2021/03/26 10:51:49;;;;;;;;;;;;;;;18.24;60.67;101209.69;5067121;28;19924;-66
2021/03/26 10:54:18;;;;;;;;;;;;;;;18.66;62.48;101197.00;5068255;28;19925;-66
2021/03/26 10:56:50;;;;;;;;;;;;;;;19.09;60.05;101190.63;5060127;28;19975;-66
2021/03/26 10:59:20;;;;;;;;;;;;;;;18.55;61.22;101189.91;5060134;28;20443;-66
2021/03/26 11:01:48;;;;;;;;;;;;;;;16.98;66.96;101189.78;5064965;28;19931;-66
2021/03/26 11:04:26;;;;;;;;;;;;;;;16.10;76.07;101196.59;5065313;28;19932;-66
2021/03/26 11:06:53;;;;;;;;;;;;;;;15.99;78.36;101196.75;5069901;28;20094;-66
2021/03/26 11:09:21;;;;;;;;;;;;;;;16.35;78.46;101188.69;5063364;28;19924;-66
2021/03/26 11:11:54;;;;;;;;;;;;;;;16.61;76.76;101193.47;5067172;28;19959;-66
2021/03/26 11:14:33;;;;;;;;;;;;;;;16.40;76.99;101189.97;5063294;28;19944;-66
2021/03/26 11:17:03;;;;;;;;;;;;;;;16.59;76.41;101176.31;5060385;28;19932;-66
2021/03/26 11:19:32;;;;;;;;;;;;;;;16.51;76.69;101186.16;5061966;28;19928;-67
2021/03/26 11:22:03;;;;;;;;;;;;;;;16.27;75.77;101181.22;5080102;28;19925;-67
2021/03/26 11:24:38;;;;;;;;;;;;;;;16.17;76.34;101184.00;5064738;28;19955;-66
2021/03/26 11:27:08;;;;;;;;;;;;;;;15.77;79.65;101176.03;5071082;28;19950;-66
2021/03/26 11:29:36;;;;;;;;;;;;;;;15.53;82.20;101178.25;5070700;28;20274;-66
2021/03/26 11:32:06;;;;;;;;;;;;;;;15.13;83.92;101175.69;5070714;28;19928;-66
2021/03/26 11:34:38;;;;;;;;;;;;;;;14.98;87.82;101169.75;5070809;28;19924;-66
2021/03/26 11:37:08;;;;;;;;;;;;;;;15.15;87.57;101169.06;5070854;28;19970;-66
2021/03/26 11:39:50;;;;;;;;;;;;;;;15.07;88.85;101174.38;5070805;28;19928;-67
2021/03/26 11:42:27;;;;;;;;;;;;;;;14.92;90.17;101164.88;5070916;28;19947;-66
2021/03/26 11:44:54;;;;;;;;;;;;;;;15.06;90.53;101159.84;5070934;28;19981;-67
2021/03/26 11:47:32;;;;;;;;;;;;;;;15.07;91.30;101157.97;5070748;28;19931;-67
2021/03/26 11:50:02;;;;;;;;;;;;;;;15.36;92.28;101159.84;5070535;28;19925;-66
2021/03/26 11:52:36;;;;;;;;;;;;;;;15.44;90.82;101153.66;5070994;28;19932;-66
2021/03/26 11:55:04;;;;;;;;;;;;;;;15.54;91.42;101147.16;5070633;28;20369;-67
2021/03/26 11:57:34;;;;;;;;;;;;;;;15.63;87.39;101144.53;5054573;28;20282;-67
2021/03/26 12:00:04;;;;;;;;;;;;;;;15.63;88.15;101150.00;5074096;28;19986;-68
2021/03/26 12:02:36;;;;;;;;;;;;;;;15.68;86.68;101142.22;5074436;28;20451;-67
2021/03/26 12:05:07;;;;;;;;;;;;;;;15.76;85.72;101145.06;5074224;28;19928;-67
2021/03/26 12:07:36;;;;;;;;;;;;;;;15.85;84.26;101138.75;5074283;28;19931;-67
2021/03/26 12:10:06;;;;;;;;;;;;;;;16.10;84.61;101133.63;5056100;28;19928;-66
2021/03/26 12:12:37;;;;;;;;;;;;;;;16.14;81.88;101126.81;5073976;28;19928;-66
2021/03/26 12:15:06;;;;;;;;;;;;;;;15.85;83.90;101124.19;5074228;28;19924;-66
2021/03/26 12:17:35;;;;;;;;;;;;;;;15.89;85.00;101123.75;5073978;28;19963;-66
2021/03/26 12:20:04;;;;;;;;;;;;;;;16.02;85.55;101117.06;5073560;28;19931;-67
2021/03/26 12:22:30;;;;;;;;;;;;;;;16.20;82.66;101119.88;5066352;28;19924;-66
2021/03/26 12:25:00;;;;;;;;;;;;;;;16.46;82.91;101114.53;5072207;28;20426;-67
2021/03/26 12:27:30;;;;;;;;;;;;;;;16.80;79.26;101110.25;5053896;28;19924;-66
2021/03/26 12:29:59;;;;;;;;;;;;;;;17.59;73.73;101108.53;5062771;28;19928;-66
2021/03/26 12:32:30;;;;;;;;;;;;;;;18.32;64.08;101101.72;5063139;28;20344;-66
2021/03/26 12:35:15;;;;;;;;;;;;;;;18.47;60.48;101090.94;5071906;28;19960;-66
2021/03/26 12:37:48;;;;;;;;;;;;;;;19.13;57.09;101092.94;5064873;28;19932;-66
2021/03/26 12:40:25;;;;;;;;;;;;;;;19.38;55.91;101093.78;5064650;28;20016;-66
2021/03/26 12:42:54;;;;;;;;;;;;;;;19.26;54.60;101092.44;5065853;28;19970;-67
2021/03/26 12:45:23;;;;;;;;;;;;;;;19.88;55.51;101091.81;5049290;28;19970;-67
2021/03/26 12:47:51;;;;;;;;;;;;;;;19.95;54.56;101086.44;5067801;28;19986;-67
2021/03/26 12:50:19;;;;;;;;;;;;;;;19.65;52.92;101078.75;5065408;28;19925;-66
2021/03/26 12:53:02;;;;;;;;;;;;;;;19.12;53.18;101075.59;5063514;28;19929;-66
2021/03/26 12:55:42;;;;;;;;;;;;;;;18.26;60.97;101076.78;5054700;28;19932;-66
2021/03/26 12:58:18;;;;;;;;;;;;;;;17.77;63.33;101067.31;5059238;28;19925;-66
2021/03/26 13:00:47;;;;;;;;;;;;;;;17.36;64.77;101069.78;5059751;28;20301;-66
2021/03/26 13:03:18;;;;;;;;;;;;;;;17.17;71.04;101073.56;5064257;28;19924;-66
2021/03/26 13:05:47;;;;;;;;;;;;;;;17.01;78.42;101068.81;5073416;28;20354;-66
2021/03/26 13:08:18;;;;;;;;;;;;;;;16.52;80.68;101064.56;5056744;28;19960;-66
2021/03/26 13:10:47;;;;;;;;;;;;;;;16.21;81.31;101067.66;5055130;28;19959;-66